createdAt,value
2018-09-29T00:01:00.674Z,15.25
2018-09-29T00:03:28.999Z,19.05
2018-09-29T00:05:57.299Z,16.42
2018-09-29T00:08:25.566Z,16.50
2018-09-29T00:10:53.855Z,14.68
2018-09-29T00:13:22.162Z,14.10
2018-09-29T00:15:50.458Z,16.80
2018-09-29T00:18:18.735Z,14.93
2018-09-29T00:20:47.035Z,16.35
2018-09-29T00:23:15.339Z,14.53
2018-09-29T00:25:43.678Z,14.87
2018-09-29T00:28:11.955Z,16.57
2018-09-29T00:30:40.247Z,13.53
2018-09-29T00:33:08.526Z,15.53
2018-09-29T00:35:36.851Z,15.40
2018-09-29T00:38:05.130Z,14.05
2018-09-29T00:40:33.435Z,17.80
2018-09-29T00:43:01.723Z,16.85
2018-09-29T00:45:30.038Z,22.05
2018-09-29T00:47:58.321Z,20.02
2018-09-29T00:50:26.642Z,17.12
2018-09-29T00:52:54.915Z,14.47
2018-09-29T00:55:23.219Z,23.05
2018-09-29T00:57:51.522Z,21.82
2018-09-29T01:00:19.827Z,18.42
2018-09-29T01:02:48.109Z,17.17
2018-09-29T01:05:16.410Z,18.95
2018-09-29T01:07:44.714Z,15.83
2018-09-29T01:10:13.027Z,15.68
2018-09-29T01:12:41.306Z,14.75
2018-09-29T01:15:09.585Z,16.50
2018-09-29T01:17:37.902Z,19.75
2018-09-29T01:20:06.220Z,13.75
2018-09-29T01:22:34.491Z,11.85
2018-09-29T01:25:02.757Z,9.80
2018-09-29T01:27:31.021Z,9.65
2018-09-29T01:29:59.302Z,11.73
2018-09-29T01:32:27.592Z,16.97
2018-09-29T01:34:55.866Z,12.90
2018-09-29T01:37:24.163Z,13.68
2018-09-29T01:39:52.507Z,12.37
2018-09-29T01:42:20.775Z,13.30
2018-09-29T01:44:49.064Z,12.25
2018-09-29T01:47:17.329Z,16.10
2018-09-29T01:49:45.626Z,14.33
2018-09-29T01:52:13.878Z,15.58
2018-09-29T01:54:42.162Z,19.82
2018-09-29T01:57:10.414Z,16.45
2018-09-29T01:59:38.701Z,17.85
2018-09-29T02:02:06.966Z,18.07
2018-09-29T02:04:35.247Z,24.07
2018-09-29T02:07:03.524Z,15.87
2018-09-29T02:09:31.787Z,17.82
2018-09-29T02:12:00.111Z,15.78
2018-09-29T02:14:28.391Z,13.35
2018-09-29T02:16:56.671Z,21.00
2018-09-29T02:19:24.930Z,12.98
2018-09-29T02:21:53.237Z,17.75
2018-09-29T02:24:21.506Z,15.63
2018-09-29T02:26:49.782Z,18.37
2018-09-29T02:29:18.036Z,10.63
2018-09-29T02:31:46.332Z,14.63
2018-09-29T02:34:14.613Z,12.43
2018-09-29T02:36:42.906Z,19.10
2018-09-29T02:39:12.206Z,16.02
2018-09-29T02:41:40.503Z,12.63
2018-09-29T02:44:09.315Z,13.25
2018-09-29T02:46:37.619Z,14.53
2018-09-29T02:49:05.975Z,11.10
2018-09-29T02:51:34.298Z,11.50
2018-09-29T02:54:02.604Z,10.58
2018-09-29T02:56:30.895Z,11.35
2018-09-29T02:58:59.155Z,19.07
2018-09-29T03:01:27.438Z,9.63
2018-09-29T03:03:55.759Z,14.58
2018-09-29T03:06:24.042Z,12.82
2018-09-29T03:08:52.310Z,13.70
2018-09-29T03:11:20.593Z,12.25
2018-09-29T03:13:49.127Z,14.60
2018-09-29T03:16:17.435Z,9.18
2018-09-29T03:18:45.758Z,13.22
2018-09-29T03:21:14.054Z,16.52
2018-09-29T03:23:42.348Z,11.57
2018-09-29T03:26:10.663Z,10.10
2018-09-29T03:28:38.947Z,7.05
2018-09-29T03:31:07.588Z,9.48
2018-09-29T03:33:35.898Z,12.78
2018-09-29T03:36:04.222Z,6.40
2018-09-29T03:38:32.495Z,10.18
2018-09-29T03:41:00.794Z,9.77
2018-09-29T03:43:29.099Z,12.85
2018-09-29T03:45:57.398Z,8.30
2018-09-29T03:48:25.678Z,10.38
2018-09-29T03:50:53.986Z,14.93
2018-09-29T03:53:22.302Z,10.80
2018-09-29T03:55:50.649Z,11.93
2018-09-29T03:58:18.923Z,5.53
2018-09-29T04:00:47.250Z,8.33
2018-09-29T04:03:15.539Z,8.93
2018-09-29T04:05:43.816Z,7.65
2018-09-29T04:08:12.118Z,8.93
2018-09-29T04:10:40.407Z,9.15
2018-09-29T04:13:08.748Z,6.12
2018-09-29T04:15:37.026Z,8.20
2018-09-29T04:18:05.329Z,10.90
2018-09-29T04:20:33.599Z,8.03
2018-09-29T04:23:01.899Z,5.83
2018-09-29T04:25:30.203Z,7.65
2018-09-29T04:27:58.558Z,11.15
2018-09-29T04:30:26.879Z,14.65
2018-09-29T04:32:55.194Z,11.33
2018-09-29T04:35:23.478Z,13.75
2018-09-29T04:37:51.793Z,6.87
2018-09-29T04:40:20.099Z,7.40
2018-09-29T04:42:48.387Z,8.58
2018-09-29T04:45:16.662Z,11.45
2018-09-29T04:47:44.946Z,11.90
2018-09-29T04:50:13.219Z,10.65
2018-09-29T04:52:41.559Z,9.93
2018-09-29T04:55:09.846Z,9.10
2018-09-29T04:57:38.610Z,7.67
2018-09-29T05:00:06.918Z,10.18
2018-09-29T05:02:35.214Z,8.00
2018-09-29T05:05:03.650Z,13.20
2018-09-29T05:07:31.947Z,11.03
2018-09-29T05:10:00.223Z,7.93
2018-09-29T05:12:28.542Z,9.03
2018-09-29T05:14:56.867Z,9.90
2018-09-29T05:17:25.153Z,16.70
2018-09-29T05:19:53.431Z,12.78
2018-09-29T05:22:21.832Z,11.33
2018-09-29T05:24:50.106Z,13.72
2018-09-29T05:27:18.406Z,13.28
2018-09-29T05:29:46.727Z,12.27
2018-09-29T05:32:15.026Z,10.18
2018-09-29T05:34:43.314Z,11.83
2018-09-29T05:37:11.745Z,11.10
2018-09-29T05:39:40.060Z,10.00
2018-09-29T05:42:08.377Z,17.60
2018-09-29T05:44:36.655Z,11.48
2018-09-29T05:47:04.953Z,11.33
2018-09-29T05:49:33.226Z,14.43
2018-09-29T05:52:01.529Z,10.87
2018-09-29T05:54:29.835Z,12.20
2018-09-29T05:56:58.139Z,12.50
2018-09-29T05:59:26.439Z,10.13
2018-09-29T06:01:54.742Z,8.63
2018-09-29T06:04:23.042Z,15.70
2018-09-29T06:06:51.358Z,11.77
2018-09-29T06:09:19.707Z,8.30
2018-09-29T06:11:47.986Z,14.13
2018-09-29T06:14:16.398Z,9.68
2018-09-29T06:16:44.685Z,6.35
2018-09-29T06:19:12.975Z,6.93
2018-09-29T06:21:41.262Z,9.98
2018-09-29T06:24:09.581Z,12.00
2018-09-29T06:26:37.849Z,16.32
2018-09-29T06:29:06.174Z,7.40
2018-09-29T06:31:34.439Z,9.10
2018-09-29T06:34:02.739Z,6.97
2018-09-29T06:36:31.038Z,10.25
2018-09-29T06:38:59.324Z,5.67
2018-09-29T06:41:27.604Z,12.58
2018-09-29T06:43:55.902Z,10.47
2018-09-29T06:46:24.198Z,13.15
2018-09-29T06:48:52.510Z,12.87
2018-09-29T06:51:20.790Z,18.90
2018-09-29T06:53:49.094Z,14.70
2018-09-29T06:56:17.374Z,13.80
2018-09-29T06:58:45.682Z,13.83
2018-09-29T07:01:13.979Z,17.77
2018-09-29T07:03:42.302Z,19.98
2018-09-29T07:06:10.592Z,20.80
2018-09-29T07:08:38.910Z,13.40
2018-09-29T07:11:07.207Z,20.92
2018-09-29T07:13:35.507Z,14.80
2018-09-29T07:16:03.771Z,15.23
2018-09-29T07:18:32.072Z,14.97
2018-09-29T07:21:00.338Z,21.40
2018-09-29T07:23:28.610Z,15.43
2018-09-29T07:25:56.871Z,21.30
2018-09-29T07:28:25.139Z,23.17
2018-09-29T07:30:54.311Z,18.75
2018-09-29T07:33:22.595Z,21.12
2018-09-29T07:35:50.858Z,25.05
2018-09-29T07:38:19.150Z,19.12
2018-09-29T07:40:47.430Z,14.90
2018-09-29T07:43:15.795Z,18.30
2018-09-29T07:45:44.074Z,21.73
2018-09-29T07:48:12.334Z,20.63
2018-09-29T07:50:41.066Z,16.70
2018-09-29T07:53:09.318Z,21.37
2018-09-29T07:55:38.519Z,17.37
2018-09-29T07:58:13.067Z,30.27
2018-09-29T08:00:41.344Z,24.98
2018-09-29T08:03:09.606Z,15.80
2018-09-29T08:05:37.894Z,17.37
2018-09-29T08:08:06.175Z,22.33
2018-09-29T08:10:34.470Z,24.82
2018-09-29T08:13:02.805Z,25.23
2018-09-29T08:15:31.073Z,20.12
2018-09-29T08:17:59.343Z,23.40
2018-09-29T08:20:27.629Z,21.10
2018-09-29T08:22:55.899Z,25.95
2018-09-29T08:25:24.187Z,23.90
2018-09-29T08:27:52.454Z,23.77
2018-09-29T08:30:20.739Z,15.28
2018-09-29T08:32:49.102Z,24.03
2018-09-29T08:35:17.392Z,18.13
2018-09-29T08:37:45.743Z,17.27
2018-09-29T08:40:13.994Z,31.52
2018-09-29T08:42:42.253Z,25.20
2018-09-29T08:45:10.546Z,25.10
2018-09-29T08:47:38.815Z,21.42
2018-09-29T08:50:07.337Z,19.60
2018-09-29T08:52:35.615Z,16.90
2018-09-29T08:55:03.898Z,20.33
2018-09-29T08:57:32.194Z,12.80
2018-09-29T09:00:00.466Z,21.82
2018-09-29T09:02:28.718Z,20.00
2018-09-29T09:04:57.074Z,15.53
2018-09-29T09:07:25.336Z,18.90
2018-09-29T09:09:53.655Z,26.05
2018-09-29T09:12:22.583Z,21.52
2018-09-29T09:14:50.929Z,14.70
2018-09-29T09:17:19.215Z,15.10
2018-09-29T09:19:47.535Z,22.87
2018-09-29T09:22:15.830Z,20.52
2018-09-29T09:25:15.308Z,16.47
2018-09-29T09:27:43.690Z,17.07
2018-09-29T09:30:12.036Z,16.63
2018-09-29T09:32:40.553Z,13.30
2018-09-29T09:35:08.873Z,19.00
2018-09-29T09:37:37.182Z,15.63
2018-09-29T09:40:05.516Z,19.77
2018-09-29T09:42:33.813Z,14.53
2018-09-29T09:45:03.046Z,15.37
2018-09-29T09:47:31.820Z,14.25
2018-09-29T09:50:00.171Z,21.33
2018-09-29T09:52:28.478Z,17.07
2018-09-29T09:54:56.776Z,15.00
2018-09-29T09:57:25.066Z,13.45
2018-09-29T09:59:53.795Z,18.20
2018-09-29T10:02:27.363Z,18.48
2018-09-29T10:04:55.680Z,13.77
2018-09-29T10:07:23.971Z,9.78
2018-09-29T10:09:52.290Z,11.47
2018-09-29T10:12:20.584Z,18.40
2018-09-29T10:14:48.869Z,14.65
2018-09-29T10:17:17.176Z,11.80
2018-09-29T10:19:45.454Z,12.70
2018-09-29T10:22:13.749Z,11.10
2018-09-29T10:24:42.047Z,26.30
2018-09-29T10:27:10.334Z,15.17
2018-09-29T10:29:38.616Z,12.50
2018-09-29T10:32:07.098Z,13.50
2018-09-29T10:34:35.363Z,15.70
2018-09-29T10:37:03.687Z,16.12
2018-09-29T10:39:31.942Z,14.55
2018-09-29T10:42:00.213Z,8.63
2018-09-29T10:44:28.478Z,14.05
2018-09-29T10:46:56.757Z,14.47
2018-09-29T10:49:25.020Z,18.70
2018-09-29T10:51:53.302Z,13.72
2018-09-29T10:54:21.819Z,17.50
2018-09-29T10:56:50.126Z,14.95
2018-09-29T10:59:18.386Z,13.53
2018-09-29T11:01:46.662Z,19.30
2018-09-29T11:04:14.930Z,13.53
2018-09-29T11:06:43.248Z,12.60
2018-09-29T11:09:12.398Z,13.00
2018-09-29T11:11:40.690Z,11.97
2018-09-29T11:14:09.855Z,14.37
2018-09-29T11:16:40.384Z,11.50
2018-09-29T11:19:11.272Z,15.83
2018-09-29T11:21:39.635Z,13.63
2018-09-29T11:24:07.986Z,15.80
2018-09-29T11:26:36.346Z,6.87
2018-09-29T11:29:04.718Z,10.90
2018-09-29T11:31:33.051Z,12.88
2018-09-29T11:34:01.427Z,8.55
2018-09-29T11:36:29.803Z,12.07
2018-09-29T11:38:58.224Z,8.50
2018-09-29T11:41:26.690Z,17.40
2018-09-29T11:43:55.206Z,8.70
2018-09-29T11:46:23.577Z,7.58
2018-09-29T11:48:52.136Z,12.83
2018-09-29T11:51:20.663Z,8.57
2018-09-29T11:53:49.151Z,11.43
2018-09-29T11:56:17.723Z,13.00
2018-09-29T11:58:46.227Z,8.00
2018-09-29T12:01:14.648Z,7.47
2018-09-29T12:03:42.998Z,8.13
2018-09-29T12:06:11.321Z,15.43
2018-09-29T12:08:39.609Z,7.47
2018-09-29T12:11:07.913Z,14.35
2018-09-29T12:13:36.226Z,12.77
2018-09-29T12:16:04.583Z,10.17
2018-09-29T12:18:33.876Z,8.50
2018-09-29T12:21:02.222Z,8.47
2018-09-29T12:23:31.791Z,4.90
2018-09-29T12:26:00.142Z,10.07
2018-09-29T12:28:28.469Z,16.45
2018-09-29T12:30:56.766Z,6.90
2018-09-29T12:33:25.083Z,10.57
2018-09-29T12:35:53.885Z,8.83
2018-09-29T12:38:22.370Z,10.10
2018-09-29T12:40:50.760Z,12.23
2018-09-29T12:43:19.120Z,11.23
2018-09-29T12:45:47.488Z,14.85
2018-09-29T12:48:15.855Z,8.93
2018-09-29T12:50:44.146Z,10.73
2018-09-29T12:53:12.447Z,12.20
2018-09-29T12:55:40.734Z,6.78
2018-09-29T12:58:09.033Z,7.80
2018-09-29T13:00:37.326Z,9.17
2018-09-29T13:03:05.617Z,4.90
2018-09-29T13:05:33.898Z,4.73
2018-09-29T13:08:02.210Z,8.45
2018-09-29T13:10:30.482Z,6.62
2018-09-29T13:12:58.810Z,7.80
2018-09-29T13:15:27.112Z,8.10
2018-09-29T13:17:56.085Z,8.65
2018-09-29T13:20:24.374Z,7.00
2018-09-29T13:22:52.693Z,8.73
2018-09-29T13:25:20.990Z,6.70
2018-09-29T13:27:49.298Z,6.85
2018-09-29T13:30:17.586Z,6.28
2018-09-29T13:32:45.902Z,6.50
2018-09-29T13:35:14.169Z,6.47
2018-09-29T13:37:42.759Z,5.35
2018-09-29T13:40:11.146Z,9.77
2018-09-29T13:42:39.474Z,8.87
2018-09-29T13:45:07.794Z,6.75
2018-09-29T13:47:36.092Z,9.40
2018-09-29T13:50:04.615Z,14.50
2018-09-29T13:52:32.910Z,9.37
2018-09-29T13:55:01.180Z,10.00
2018-09-29T13:57:30.377Z,6.82
2018-09-29T13:59:58.734Z,4.20
2018-09-29T14:02:27.039Z,9.97
2018-09-29T14:04:55.331Z,6.95
2018-09-29T14:07:23.686Z,11.35
2018-09-29T14:09:52.019Z,8.60
2018-09-29T14:12:20.374Z,8.48
2018-09-29T14:14:48.703Z,4.90
2018-09-29T14:17:17.359Z,6.90
2018-09-29T14:19:45.710Z,6.90
2018-09-29T14:22:14.078Z,7.17
2018-09-29T14:24:43.853Z,20.27
2018-09-29T14:27:12.468Z,6.40
2018-09-29T14:29:40.918Z,7.77
2018-09-29T14:32:09.246Z,7.20
2018-09-29T14:34:37.571Z,11.30
2018-09-29T14:37:05.905Z,8.30
2018-09-29T14:39:34.227Z,7.40
2018-09-29T14:42:02.610Z,9.00
2018-09-29T14:44:30.882Z,8.55
2018-09-29T14:46:59.153Z,10.83
2018-09-29T14:49:27.483Z,5.87
2018-09-29T14:51:55.809Z,6.60
2018-09-29T14:54:24.142Z,10.47
2018-09-29T14:56:52.610Z,11.33
2018-09-29T14:59:20.951Z,6.50
2018-09-29T15:01:49.237Z,7.60
2018-09-29T15:04:17.566Z,8.30
2018-09-29T15:06:45.872Z,11.97
2018-09-29T15:09:14.215Z,6.27
2018-09-29T15:11:42.695Z,7.20
2018-09-29T15:14:11.487Z,8.23
2018-09-29T15:16:40.346Z,8.23
2018-09-29T15:19:08.650Z,19.67
2018-09-29T15:21:36.927Z,10.10
2018-09-29T15:24:05.259Z,7.60
2018-09-29T15:26:33.572Z,10.67
2018-09-29T15:29:01.891Z,6.73
2018-09-29T15:31:30.170Z,10.83
2018-09-29T15:33:58.493Z,5.57
2018-09-29T15:36:27.141Z,7.83
2018-09-29T15:38:55.486Z,13.25
2018-09-29T15:41:23.786Z,9.50
2018-09-29T15:43:52.103Z,10.38
2018-09-29T15:46:20.395Z,9.53
2018-09-29T15:48:48.739Z,9.27
2018-09-29T15:51:17.000Z,6.30
2018-09-29T15:53:45.310Z,11.97
2018-09-29T15:56:13.603Z,7.50
2018-09-29T15:58:41.938Z,9.20
2018-09-29T16:01:10.259Z,12.07
2018-09-29T16:03:38.571Z,12.35
2018-09-29T16:06:06.882Z,12.78
2018-09-29T16:08:35.183Z,11.90
2018-09-29T16:11:03.507Z,8.90
2018-09-29T16:13:31.794Z,7.57
2018-09-29T16:16:00.054Z,9.40
2018-09-29T16:18:28.322Z,9.10
2018-09-29T16:20:56.641Z,5.40
2018-09-29T16:23:24.926Z,13.40
2018-09-29T16:25:53.315Z,8.07
2018-09-29T16:28:21.578Z,8.30
2018-09-29T16:30:49.959Z,7.73
2018-09-29T16:33:18.949Z,8.03
2018-09-29T16:35:47.275Z,6.47
2018-09-29T16:38:15.644Z,13.78
2018-09-29T16:40:43.917Z,10.95
2018-09-29T16:43:12.181Z,7.95
2018-09-29T16:45:40.551Z,10.63
2018-09-29T16:48:08.822Z,7.40
2018-09-29T16:50:37.123Z,10.03
2018-09-29T16:53:05.378Z,6.33
2018-09-29T16:55:33.670Z,9.95
2018-09-29T16:58:01.955Z,5.80
2018-09-29T17:00:30.242Z,15.08
2018-09-29T17:02:58.518Z,10.48
2018-09-29T17:05:27.882Z,8.25
2018-09-29T17:07:56.201Z,8.08
2018-09-29T17:10:24.522Z,7.90
2018-09-29T17:12:52.810Z,22.13
2018-09-29T17:15:21.186Z,24.15
2018-09-29T17:17:49.467Z,26.07
2018-09-29T17:20:17.802Z,18.87
2018-09-29T17:22:46.071Z,19.10
2018-09-29T17:25:14.368Z,11.80
2018-09-29T17:27:42.658Z,14.95
2018-09-29T17:30:11.064Z,13.98
2018-09-29T17:32:40.390Z,12.23
2018-09-29T17:35:08.682Z,13.83
2018-09-29T17:37:36.981Z,12.37
2018-09-29T17:40:05.278Z,16.82
2018-09-29T17:42:33.569Z,10.80
2018-09-29T17:45:01.840Z,13.57
2018-09-29T17:47:30.090Z,13.00
2018-09-29T17:49:58.409Z,15.30
2018-09-29T17:52:26.666Z,20.37
2018-09-29T17:54:54.994Z,27.13
2018-09-29T17:57:23.310Z,20.70
2018-09-29T17:59:51.610Z,17.70
2018-09-29T18:02:19.868Z,14.80
2018-09-29T18:04:48.174Z,12.03
2018-09-29T18:07:16.445Z,12.05
2018-09-29T18:09:44.730Z,15.00
2018-09-29T18:12:13.018Z,14.80
2018-09-29T18:14:41.350Z,14.70
2018-09-29T18:17:09.678Z,13.10
2018-09-29T18:19:37.975Z,15.63
2018-09-29T18:22:06.322Z,15.63
2018-09-29T18:24:34.586Z,13.43
2018-09-29T18:27:04.319Z,12.40
2018-09-29T18:29:32.601Z,14.33
2018-09-29T18:32:00.934Z,17.10
2018-09-29T18:34:29.208Z,15.00
2018-09-29T18:36:57.505Z,14.28
2018-09-29T18:39:25.774Z,12.70
2018-09-29T18:41:54.082Z,11.10
2018-09-29T18:44:22.354Z,11.33
2018-09-29T18:46:50.635Z,13.20
2018-09-29T18:49:18.928Z,10.75
2018-09-29T18:51:47.249Z,11.53
2018-09-29T18:54:15.501Z,8.97
2018-09-29T18:56:43.799Z,9.10
2018-09-29T18:59:12.075Z,13.80
2018-09-29T19:01:40.686Z,11.33
2018-09-29T19:04:08.966Z,13.93
2018-09-29T19:06:37.258Z,13.83
2018-09-29T19:09:08.239Z,8.63
2018-09-29T19:11:36.580Z,15.00
2018-09-29T19:14:04.906Z,19.62
2018-09-29T19:16:33.185Z,31.57
2018-09-29T19:19:01.462Z,44.33
2018-09-29T19:21:29.755Z,41.77
2018-09-29T19:23:58.071Z,41.33
2018-09-29T19:26:26.367Z,37.58
2018-09-29T19:28:54.638Z,27.17
2018-09-29T19:31:24.034Z,24.10
2018-09-29T19:33:52.322Z,17.48
2018-09-29T19:36:20.611Z,13.50
2018-09-29T19:38:49.150Z,12.10
2018-09-29T19:41:17.739Z,15.90
2018-09-29T19:43:46.043Z,8.73
2018-09-29T19:46:14.367Z,9.55
2018-09-29T19:48:42.681Z,11.53
2018-09-29T19:51:11.115Z,12.10
2018-09-29T19:53:39.364Z,10.90
2018-09-29T19:56:07.894Z,11.57
2018-09-29T19:58:36.193Z,13.18
2018-09-29T20:01:04.454Z,12.18
2018-09-29T20:03:32.771Z,16.10
2018-09-29T20:06:01.048Z,21.37
2018-09-29T20:08:29.327Z,16.47
2018-09-29T20:10:57.594Z,23.23
2018-09-29T20:13:25.938Z,23.13
2018-09-29T20:15:54.265Z,26.95
2018-09-29T20:18:22.623Z,26.35
2018-09-29T20:20:50.939Z,31.55
2018-09-29T20:23:19.250Z,31.57
2018-09-29T20:25:47.566Z,26.57
2018-09-29T20:28:15.894Z,21.37
2018-09-29T20:30:44.202Z,27.47
2018-09-29T20:33:12.538Z,26.60
2018-09-29T20:35:40.859Z,22.62
2018-09-29T20:38:09.247Z,9.18
2018-09-29T20:40:37.582Z,15.67
2018-09-29T20:43:06.134Z,13.87
2018-09-29T20:45:34.467Z,10.03
2018-09-29T20:48:02.787Z,12.33
2018-09-29T20:50:31.114Z,9.35
2018-09-29T20:52:59.418Z,13.85
2018-09-29T20:55:27.711Z,10.68
2018-09-29T20:57:56.050Z,13.37
2018-09-29T21:00:24.353Z,12.47
2018-09-29T21:02:52.669Z,11.88
2018-09-29T21:05:20.955Z,6.77
2018-09-29T21:07:49.287Z,12.50
2018-09-29T21:10:17.594Z,8.13
2018-09-29T21:12:45.998Z,10.17
2018-09-29T21:15:14.260Z,10.67
2018-09-29T21:17:42.565Z,8.17
2018-09-29T21:20:10.874Z,9.27
2018-09-29T21:22:39.193Z,8.38
2018-09-29T21:25:07.474Z,9.85
2018-09-29T21:27:35.785Z,9.98
2018-09-29T21:30:06.992Z,9.60
2018-09-29T21:32:35.320Z,9.28
2018-09-29T21:35:03.624Z,7.10
2018-09-29T21:37:31.934Z,9.77
2018-09-29T21:40:00.240Z,7.75
2018-09-29T21:42:28.580Z,12.37
2018-09-29T21:44:56.911Z,10.80
2018-09-29T21:47:25.222Z,15.13
2018-09-29T21:49:54.499Z,13.03
2018-09-29T21:52:22.850Z,16.02
2018-09-29T21:54:51.142Z,12.20
2018-09-29T21:57:19.430Z,12.90
2018-09-29T21:59:47.756Z,10.85
2018-09-29T22:02:16.130Z,13.70
2018-09-29T22:04:44.441Z,12.60
2018-09-29T22:07:12.744Z,15.17
2018-09-29T22:09:41.075Z,13.32
2018-09-29T22:12:09.367Z,12.18
2018-09-29T22:14:37.689Z,11.25
2018-09-29T22:17:05.993Z,19.27
2018-09-29T22:19:34.310Z,11.07
2018-09-29T22:22:02.615Z,14.05
2018-09-29T22:24:30.918Z,12.37
2018-09-29T22:26:59.203Z,12.33
2018-09-29T22:29:27.521Z,12.93
2018-09-29T22:31:55.924Z,17.55
2018-09-29T22:34:24.206Z,14.95
2018-09-29T22:36:52.537Z,14.75
2018-09-29T22:39:20.833Z,14.18
2018-09-29T22:41:49.113Z,13.18
2018-09-29T22:44:17.412Z,15.70
2018-09-29T22:46:45.688Z,9.93
2018-09-29T22:49:14.011Z,10.90
2018-09-29T22:51:42.316Z,14.05
2018-09-29T22:54:10.618Z,13.53
2018-09-29T22:56:38.966Z,15.90
2018-09-29T22:59:07.255Z,20.00
2018-09-29T23:01:35.559Z,15.13
2018-09-29T23:04:03.863Z,15.95
2018-09-29T23:06:32.148Z,15.05
2018-09-29T23:09:00.447Z,16.30
2018-09-29T23:11:28.738Z,17.23
2018-09-29T23:13:57.071Z,13.65
2018-09-29T23:16:25.340Z,14.55
2018-09-29T23:18:53.663Z,17.23
2018-09-29T23:21:21.941Z,15.35
2018-09-29T23:23:50.239Z,12.50
2018-09-29T23:26:18.494Z,12.15
2018-09-29T23:28:46.773Z,14.40
2018-09-29T23:31:15.023Z,14.63
2018-09-29T23:33:43.306Z,11.68
2018-09-29T23:36:11.561Z,13.43
2018-09-29T23:38:39.858Z,13.85
2018-09-29T23:41:08.113Z,8.85
2018-09-29T23:43:36.414Z,11.05
2018-09-29T23:46:04.677Z,11.35
2018-09-29T23:48:32.947Z,12.03
2018-09-29T23:51:01.226Z,12.03
2018-09-29T23:53:29.494Z,11.10
2018-09-29T23:55:57.774Z,9.43
2018-09-29T23:58:26.036Z,12.73
